Time;durP1;ratioP1;P1;durP2;ratioP2;P2;SDS_P1;SDS_P2;PMS_P1;PMS_P2;Temp;Humidity;BMP_temperature;BMP_pressure;BME280_temperature;BME280_humidity;BME280_pressure;Samples;Min_cycle;Max_cycle;Signal;HPM_P1;HPM_P2
2023/10/19 00:01:58;;;;;;;18.45;14.68;;;8.40;54.90;;;;;;5089321;28;20479;-73
2023/10/19 00:04:32;;;;;;;19.73;14.85;;;8.40;57.10;;;;;;5081975;28;20406;-72
2023/10/19 00:06:57;;;;;;;19.13;15.02;;;8.40;58.40;;;;;;5088632;28;20402;-73
2023/10/19 00:09:23;;;;;;;19.40;14.80;;;8.40;57.60;;;;;;5089235;28;20970;-72
2023/10/19 00:11:51;;;;;;;19.38;14.93;;;8.30;60.10;;;;;;5088679;28;20436;-73
2023/10/19 00:14:18;;;;;;;24.60;17.25;;;8.40;59.90;;;;;;5088831;28;20839;-73
2023/10/19 00:16:52;;;;;;;23.65;16.50;;;8.30;62.10;;;;;;5122088;27;20937;-72
2023/10/19 00:19:19;;;;;;;26.52;18.35;;;8.30;60.20;;;;;;5088427;28;20741;-72
2023/10/19 00:21:51;;;;;;;26.38;18.42;;;8.30;62.10;;;;;;5087648;28;20399;-72
2023/10/19 00:24:19;;;;;;;26.75;18.88;;;8.30;61.50;;;;;;5087438;28;20414;-72
2023/10/19 00:26:47;;;;;;;23.25;17.15;;;8.30;63.20;;;;;;5087970;28;20406;-72
2023/10/19 00:29:30;;;;;;;24.50;17.55;;;8.30;63.00;;;;;;5087561;28;20470;-72
2023/10/19 00:31:58;;;;;;;25.30;16.73;;;8.30;66.10;;;;;;5079230;28;20422;-72
2023/10/19 00:34:25;;;;;;;25.05;17.75;;;8.20;66.10;;;;;;5086657;28;20402;-71
2023/10/19 00:36:51;;;;;;;23.92;17.45;;;8.20;67.80;;;;;;5087726;28;20951;-71
2023/10/19 00:39:27;;;;;;;23.42;17.35;;;8.30;67.90;;;;;;5088092;28;20422;-71
2023/10/19 00:41:58;;;;;;;22.30;16.52;;;8.20;70.00;;;;;;5088451;28;20401;-72
2023/10/19 00:44:49;;;;;;;22.88;16.25;;;8.20;67.90;;;;;;5088377;28;20409;-71
2023/10/19 00:47:13;;;;;;;24.58;18.63;;;8.20;68.40;;;;;;5087995;28;20780;-71
2023/10/19 00:49:39;;;;;;;23.67;18.88;;;8.20;68.80;;;;;;5088536;28;20417;-72
2023/10/19 00:52:19;;;;;;;26.40;18.27;;;8.20;69.00;;;;;;5087823;28;20421;-72
2023/10/19 00:54:51;;;;;;;24.13;17.63;;;8.20;68.70;;;;;;5082279;28;20756;-71
2023/10/19 00:57:33;;;;;;;25.38;18.80;;;8.20;70.80;;;;;;5080707;28;20414;-71
2023/10/19 01:00:13;;;;;;;26.10;19.92;;;8.20;70.80;;;;;;5085347;28;21447;-71
2023/10/19 01:02:45;;;;;;;27.92;20.63;;;8.10;71.10;;;;;;5088101;28;20465;-72
2023/10/19 01:05:14;;;;;;;26.33;21.90;;;8.20;72.30;;;;;;5068758;28;20939;-72
2023/10/19 01:07:40;;;;;;;31.90;23.25;;;8.20;74.90;;;;;;5087950;28;20409;-72
2023/10/19 01:10:28;;;;;;;29.10;23.55;;;8.20;74.20;;;;;;5086630;28;20402;-71
2023/10/19 01:12:54;;;;;;;32.88;24.52;;;8.20;73.50;;;;;;5084178;28;20402;-72
2023/10/19 01:17:56;;;;;;;29.45;22.30;;;8.20;74.20;;;;;;5085078;28;20413;-72
2023/10/19 01:25:59;;;;;;;31.10;23.52;;;8.20;76.00;;;;;;5080566;28;20408;-72
2023/10/19 01:28:41;;;;;;;32.42;24.50;;;8.20;75.40;;;;;;5085093;28;20491;-71
2023/10/19 01:31:15;;;;;;;33.90;25.20;;;8.20;76.30;;;;;;5078902;28;20461;-72
2023/10/19 01:33:41;;;;;;;31.85;25.50;;;8.20;76.20;;;;;;5087594;28;20413;-72
2023/10/19 01:36:11;;;;;;;35.75;26.58;;;8.20;75.20;;;;;;5085951;28;20406;-71
2023/10/19 01:38:37;;;;;;;34.38;26.63;;;8.20;75.90;;;;;;5080829;28;20432;-71
2023/10/19 01:41:16;;;;;;;34.78;25.55;;;8.20;75.80;;;;;;5082540;28;20398;-71
2023/10/19 01:43:44;;;;;;;32.33;25.35;;;8.20;77.30;;;;;;5087211;28;20463;-71
2023/10/19 01:46:11;;;;;;;31.25;24.98;;;8.20;79.00;;;;;;5091126;28;20961;-71
2023/10/19 01:48:44;;;;;;;35.40;24.92;;;8.20;79.30;;;;;;5091907;28;20413;-71
2023/10/19 01:51:12;;;;;;;32.50;24.70;;;8.20;77.70;;;;;;5091111;28;20955;-71
2023/10/19 01:53:44;;;;;;;32.63;24.02;;;8.20;77.60;;;;;;5091696;28;20404;-71
2023/10/19 01:56:10;;;;;;;33.53;23.98;;;8.20;79.00;;;;;;5090285;28;20485;-71
2023/10/19 01:58:37;;;;;;;34.03;24.30;;;8.20;79.70;;;;;;5091243;28;20407;-71
2023/10/19 02:01:08;;;;;;;31.13;23.67;;;8.10;80.00;;;;;;5091390;28;20451;-71
2023/10/19 02:03:35;;;;;;;32.30;24.63;;;8.10;80.30;;;;;;5091577;28;20406;-71
2023/10/19 02:06:10;;;;;;;33.38;25.13;;;8.10;80.50;;;;;;5091708;28;20763;-72
2023/10/19 02:08:38;;;;;;;36.33;26.33;;;8.10;80.50;;;;;;5085944;28;20406;-72
2023/10/19 02:11:16;;;;;;;35.78;26.50;;;8.10;80.60;;;;;;5082122;28;20433;-71
2023/10/19 02:13:42;;;;;;;36.95;27.25;;;8.10;81.40;;;;;;5087357;28;20917;-73
2023/10/19 02:16:08;;;;;;;34.77;25.83;;;8.10;81.60;;;;;;5089986;28;20437;-72
2023/10/19 02:18:34;;;;;;;33.63;26.00;;;8.10;81.60;;;;;;5087793;28;20407;-73
2023/10/19 02:21:04;;;;;;;36.03;26.08;;;8.10;82.60;;;;;;5089515;28;20410;-72
2023/10/19 02:23:29;;;;;;;40.00;28.35;;;8.10;81.60;;;;;;5089570;28;20401;-72
2023/10/19 02:25:56;;;;;;;37.08;29.83;;;8.10;82.20;;;;;;5091098;28;20402;-72
2023/10/19 02:28:31;;;;;;;39.03;28.88;;;8.10;85.00;;;;;;5089246;28;21145;-72
2023/10/19 02:30:57;;;;;;;39.92;27.90;;;8.00;84.40;;;;;;5088903;28;20460;-72
2023/10/19 02:33:22;;;;;;;42.50;30.20;;;8.10;84.10;;;;;;5090775;28;21461;-72
2023/10/19 02:35:48;;;;;;;46.70;33.20;;;8.00;84.40;;;;;;5091113;28;20406;-72
2023/10/19 02:38:14;;;;;;;44.35;32.33;;;8.00;85.00;;;;;;5090136;28;20787;-72
2023/10/19 02:40:40;;;;;;;46.47;30.70;;;8.10;85.00;;;;;;5090433;28;20447;-72
2023/10/19 02:43:06;;;;;;;41.40;28.80;;;8.10;86.20;;;;;;5090688;28;20398;-72
2023/10/19 02:45:31;;;;;;;38.27;26.80;;;8.00;86.30;;;;;;5090529;28;20427;-73
2023/10/19 02:47:58;;;;;;;36.17;26.60;;;8.00;86.20;;;;;;5090608;28;20771;-72
2023/10/19 02:50:26;;;;;;;36.90;26.58;;;8.00;84.90;;;;;;5090244;28;20402;-72
2023/10/19 02:52:53;;;;;;;41.50;29.02;;;8.00;85.30;;;;;;5089408;28;20414;-72
2023/10/19 02:55:23;;;;;;;35.50;25.73;;;8.00;86.50;;;;;;5088410;28;20405;-72
2023/10/19 02:57:50;;;;;;;39.30;28.55;;;8.00;86.20;;;;;;5071772;28;20398;-72
2023/10/19 03:00:19;;;;;;;32.10;23.33;;;8.00;86.40;;;;;;5090005;28;20443;-71
2023/10/19 03:02:46;;;;;;;34.72;24.90;;;8.00;87.50;;;;;;5102253;28;20406;-71
2023/10/19 03:05:15;;;;;;;38.72;25.98;;;8.00;87.40;;;;;;5088772;28;20398;-71
2023/10/19 03:07:44;;;;;;;35.45;24.38;;;8.00;87.30;;;;;;5090322;28;20406;-72
2023/10/19 03:10:23;;;;;;;31.42;22.48;;;8.00;86.40;;;;;;5089828;28;20425;-71
2023/10/19 03:12:50;;;;;;;31.20;22.92;;;8.00;85.40;;;;;;5089887;28;21021;-71
2023/10/19 03:15:19;;;;;;;30.13;21.10;;;8.10;85.60;;;;;;5088570;28;20414;-72
2023/10/19 03:17:46;;;;;;;25.95;19.50;;;8.00;87.20;;;;;;5090345;28;20425;-73
2023/10/19 03:20:11;;;;;;;24.80;19.70;;;8.00;88.00;;;;;;5085470;28;20407;-72
2023/10/19 03:22:40;;;;;;;29.75;21.80;;;8.00;87.10;;;;;;5090440;28;20406;-72
2023/10/19 03:27:54;;;;;;;32.78;21.83;;;8.00;87.80;;;;;;5078319;28;20481;-72
2023/10/19 03:30:23;;;;;;;29.37;21.40;;;8.00;88.20;;;;;;5088901;28;20421;-72
2023/10/19 03:32:50;;;;;;;27.42;19.70;;;8.00;88.10;;;;;;5089407;28;20433;-72
2023/10/19 03:35:16;;;;;;;28.77;19.52;;;8.00;88.60;;;;;;5089777;28;21263;-72
2023/10/19 03:37:42;;;;;;;27.37;19.53;;;8.00;89.00;;;;;;5089600;28;20439;-72
2023/10/19 03:40:10;;;;;;;30.70;21.23;;;7.90;90.30;;;;;;5088419;28;20409;-72
2023/10/19 03:42:40;;;;;;;25.30;18.77;;;8.00;89.00;;;;;;5089436;28;21075;-72
2023/10/19 03:45:13;;;;;;;24.83;18.40;;;8.00;89.30;;;;;;5089535;28;20409;-72
2023/10/19 03:47:39;;;;;;;23.55;17.15;;;7.90;89.50;;;;;;5089363;28;21495;-72
2023/10/19 03:50:14;;;;;;;23.58;17.55;;;7.90;89.80;;;;;;5089214;28;20400;-72
2023/10/19 03:52:39;;;;;;;23.83;17.92;;;8.00;90.00;;;;;;5086624;28;20429;-72
2023/10/19 03:55:11;;;;;;;25.42;17.75;;;7.90;90.40;;;;;;5089309;28;20483;-72
2023/10/19 03:57:41;;;;;;;21.77;16.00;;;7.90;90.00;;;;;;5089213;28;20408;-72
2023/10/19 04:00:16;;;;;;;22.10;15.87;;;7.90;90.10;;;;;;5088682;28;20981;-72
2023/10/19 04:02:42;;;;;;;19.60;15.02;;;8.00;90.00;;;;;;5088061;28;20411;-72
2023/10/19 04:05:14;;;;;;;16.42;13.50;;;7.90;90.20;;;;;;5088986;28;20405;-72
2023/10/19 04:07:41;;;;;;;19.00;13.17;;;8.00;90.60;;;;;;5100518;28;20422;-71
2023/10/19 04:12:38;;;;;;;17.95;14.00;;;7.90;91.00;;;;;;5088896;28;20426;-72
2023/10/19 04:15:21;;;;;;;17.63;13.70;;;8.00;90.90;;;;;;5087273;28;20433;-72
2023/10/19 04:17:48;;;;;;;17.83;12.50;;;8.00;90.60;;;;;;5082028;28;20394;-72
2023/10/19 04:22:49;;;;;;;18.42;13.27;;;8.00;91.00;;;;;;5087593;28;20757;-72
2023/10/19 04:25:16;;;;;;;17.35;12.25;;;8.00;90.70;;;;;;5087209;28;20492;-72
2023/10/19 04:27:45;;;;;;;17.67;13.15;;;8.00;90.80;;;;;;5087919;28;20481;-72
2023/10/19 04:30:15;;;;;;;18.75;13.27;;;8.00;90.60;;;;;;5088133;28;21272;-72
2023/10/19 04:32:45;;;;;;;17.42;13.20;;;8.00;90.70;;;;;;5088796;28;20469;-72
2023/10/19 04:35:21;;;;;;;20.42;14.88;;;8.00;90.70;;;;;;5088155;28;20405;-72
2023/10/19 04:37:47;;;;;;;19.05;14.27;;;8.00;90.90;;;;;;5118106;27;20861;-72
2023/10/19 04:40:13;;;;;;;18.50;13.98;;;8.00;90.90;;;;;;5086684;28;20459;-72
2023/10/19 04:42:39;;;;;;;16.52;13.10;;;8.00;90.90;;;;;;5119635;27;20481;-72
2023/10/19 04:45:05;;;;;;;18.38;13.30;;;8.00;91.20;;;;;;5087185;28;20972;-72
2023/10/19 04:47:35;;;;;;;20.58;14.95;;;8.00;91.10;;;;;;5073969;28;20407;-72
2023/10/19 04:50:02;;;;;;;20.63;14.10;;;8.00;91.10;;;;;;5087423;28;20463;-72
2023/10/19 04:52:28;;;;;;;20.27;14.43;;;8.00;91.20;;;;;;5087120;28;20438;-72
2023/10/19 04:54:54;;;;;;;15.75;11.75;;;8.00;91.20;;;;;;5088125;28;20405;-72
2023/10/19 04:57:23;;;;;;;17.95;12.30;;;8.00;91.00;;;;;;5087844;28;20402;-72
2023/10/19 04:59:49;;;;;;;17.95;12.25;;;8.00;90.90;;;;;;5088389;28;20477;-72
2023/10/19 05:02:14;;;;;;;16.07;11.40;;;8.00;90.80;;;;;;5087720;28;20494;-72
2023/10/19 05:04:43;;;;;;;16.20;10.98;;;8.00;91.00;;;;;;5088172;28;20406;-71
2023/10/19 05:07:14;;;;;;;13.77;10.23;;;8.00;91.00;;;;;;5087418;28;20398;-72
2023/10/19 05:09:40;;;;;;;14.85;10.52;;;8.00;91.20;;;;;;5087853;28;21250;-72
2023/10/19 05:12:09;;;;;;;14.47;10.43;;;8.00;91.30;;;;;;5087614;28;20508;-72
2023/10/19 05:14:36;;;;;;;15.90;10.90;;;8.00;91.30;;;;;;5088004;28;20406;-72
2023/10/19 05:17:05;;;;;;;13.07;10.00;;;8.00;91.20;;;;;;5086942;28;20414;-72
2023/10/19 05:19:34;;;;;;;14.00;10.07;;;8.00;91.20;;;;;;5087384;28;20398;-72
2023/10/19 05:22:01;;;;;;;12.07;9.10;;;8.00;91.10;;;;;;5088140;28;20469;-72
2023/10/19 05:24:27;;;;;;;13.07;9.43;;;8.00;91.10;;;;;;5086700;28;20816;-72
2023/10/19 05:26:53;;;;;;;13.10;9.50;;;8.00;91.30;;;;;;5086677;28;20439;-72
2023/10/19 05:29:19;;;;;;;15.17;9.83;;;7.90;91.50;;;;;;5086574;28;20478;-72
2023/10/19 05:31:45;;;;;;;13.67;9.50;;;7.90;91.60;;;;;;5087848;28;20559;-69
2023/10/19 05:34:11;;;;;;;12.57;9.07;;;7.90;91.40;;;;;;5087013;28;21070;-69
2023/10/19 05:36:36;;;;;;;13.70;9.27;;;8.00;91.30;;;;;;5088647;28;20578;-71
2023/10/19 05:39:04;;;;;;;12.23;8.60;;;8.00;91.60;;;;;;5092412;28;20414;-71
2023/10/19 05:41:31;;;;;;;12.18;8.52;;;8.00;91.80;;;;;;5099396;28;20911;-71
2023/10/19 05:43:57;;;;;;;11.35;7.80;;;7.90;92.00;;;;;;5087432;28;21169;-72
2023/10/19 05:46:24;;;;;;;11.20;7.93;;;8.00;91.90;;;;;;5088108;28;20891;-72
2023/10/19 05:48:51;;;;;;;10.60;8.07;;;8.00;91.90;;;;;;5087810;28;20455;-72
2023/10/19 05:51:17;;;;;;;13.27;9.03;;;7.90;92.00;;;;;;5087328;28;20488;-72
2023/10/19 05:53:44;;;;;;;12.40;9.30;;;7.90;91.70;;;;;;5086664;28;20410;-72
2023/10/19 05:56:11;;;;;;;10.88;8.70;;;7.90;91.90;;;;;;5086638;28;20409;-72
2023/10/19 05:58:36;;;;;;;14.90;9.57;;;7.90;92.10;;;;;;5087665;28;20401;-72
2023/10/19 06:01:02;;;;;;;11.65;9.43;;;7.90;92.20;;;;;;5087293;28;20401;-72
2023/10/19 06:03:28;;;;;;;12.47;9.63;;;7.90;92.30;;;;;;5086618;28;20431;-72
2023/10/19 06:05:56;;;;;;;13.45;10.30;;;7.90;92.00;;;;;;5087405;28;20413;-72
2023/10/19 06:08:22;;;;;;;16.05;12.13;;;7.90;92.20;;;;;;5086208;28;20421;-72
2023/10/19 06:10:54;;;;;;;16.10;12.10;;;7.90;92.20;;;;;;5085499;28;20433;-72
2023/10/19 06:13:21;;;;;;;14.23;10.55;;;7.90;92.20;;;;;;5087681;28;20420;-72
2023/10/19 06:15:48;;;;;;;11.18;9.13;;;7.90;92.30;;;;;;5086632;28;20406;-72
2023/10/19 06:18:14;;;;;;;13.40;10.40;;;7.90;92.00;;;;;;5086586;28;20402;-72
2023/10/19 06:20:44;;;;;;;12.10;8.80;;;7.90;91.90;;;;;;5087478;28;20760;-72
2023/10/19 06:23:11;;;;;;;12.75;10.07;;;7.90;92.10;;;;;;5086628;28;20536;-72
2023/10/19 06:25:38;;;;;;;13.15;10.23;;;7.90;92.10;;;;;;5087511;28;20906;-72
2023/10/19 06:28:04;;;;;;;13.43;10.10;;;7.90;91.90;;;;;;5087348;28;20394;-72
2023/10/19 06:30:30;;;;;;;14.93;10.32;;;7.90;92.50;;;;;;5088512;28;20402;-72
2023/10/19 06:33:00;;;;;;;14.73;10.88;;;7.90;92.20;;;;;;5090711;28;20394;-72
2023/10/19 06:35:27;;;;;;;12.70;9.57;;;7.80;92.50;;;;;;5090869;28;20406;-72
2023/10/19 06:37:54;;;;;;;11.20;8.80;;;7.90;92.30;;;;;;5089321;28;20437;-72
2023/10/19 06:40:22;;;;;;;12.57;9.80;;;7.90;92.50;;;;;;5088933;28;20409;-72
2023/10/19 06:42:49;;;;;;;14.02;11.18;;;7.90;92.70;;;;;;5091159;28;20409;-72
2023/10/19 06:45:15;;;;;;;17.92;12.18;;;7.90;92.70;;;;;;5090572;28;20410;-72
2023/10/19 06:47:46;;;;;;;15.70;12.40;;;7.90;92.40;;;;;;5090416;28;20402;-72
2023/10/19 06:50:16;;;;;;;16.75;12.82;;;7.90;92.30;;;;;;5123185;27;20414;-72
2023/10/19 06:52:43;;;;;;;12.95;10.18;;;7.90;92.40;;;;;;5089768;28;20450;-72
2023/10/19 06:58:05;;;;;;;15.20;11.25;;;7.90;92.60;;;;;;5101203;27;20496;-72
2023/10/19 07:00:30;;;;;;;15.77;12.15;;;7.90;92.70;;;;;;5090052;28;20410;-72
2023/10/19 07:03:00;;;;;;;14.32;10.88;;;7.90;92.80;;;;;;5072605;28;20406;-72
2023/10/19 07:05:29;;;;;;;12.38;9.80;;;7.90;92.70;;;;;;5076130;28;20414;-72
2023/10/19 07:07:56;;;;;;;14.38;10.55;;;7.90;93.00;;;;;;5090606;28;20417;-72
2023/10/19 07:10:23;;;;;;;14.57;11.48;;;7.90;92.90;;;;;;5088179;28;20406;-72
2023/10/19 07:12:51;;;;;;;11.40;8.68;;;7.90;92.80;;;;;;5090579;28;20485;-72
2023/10/19 07:15:21;;;;;;;9.57;7.57;;;7.90;92.80;;;;;;5089866;28;20409;-72
2023/10/19 07:17:49;;;;;;;10.30;8.27;;;7.90;92.80;;;;;;5089898;28;20569;-72
2023/10/19 07:20:25;;;;;;;11.50;8.50;;;7.90;92.70;;;;;;5088680;28;20489;-72
2023/10/19 07:23:00;;;;;;;12.67;9.40;;;7.90;92.60;;;;;;5089215;28;20847;-72
2023/10/19 07:25:26;;;;;;;14.13;10.07;;;7.90;92.70;;;;;;5089763;28;20866;-72
2023/10/19 07:27:55;;;;;;;11.63;8.57;;;7.90;92.50;;;;;;5122389;27;20492;-72
2023/10/19 07:30:22;;;;;;;11.23;8.47;;;7.90;92.60;;;;;;5089257;28;20987;-72
2023/10/19 07:32:59;;;;;;;10.30;7.18;;;7.90;92.50;;;;;;5088907;28;20414;-73
2023/10/19 07:35:27;;;;;;;9.50;7.05;;;8.00;92.70;;;;;;5088256;28;20942;-72
2023/10/19 07:37:53;;;;;;;9.20;6.82;;;8.00;92.60;;;;;;5089724;28;20862;-73
2023/10/19 07:40:19;;;;;;;8.35;6.20;;;8.00;92.70;;;;;;5088091;28;20775;-73
2023/10/19 07:42:49;;;;;;;8.53;6.23;;;8.00;92.50;;;;;;5089565;28;20406;-72
2023/10/19 07:45:15;;;;;;;10.80;8.23;;;8.00;92.60;;;;;;5088975;28;20421;-72
2023/10/19 07:47:43;;;;;;;10.35;8.20;;;8.00;92.80;;;;;;5074270;28;20489;-72
2023/10/19 07:50:15;;;;;;;9.95;7.22;;;8.00;92.90;;;;;;5089134;28;20768;-71
2023/10/19 07:52:43;;;;;;;9.30;7.15;;;8.00;92.80;;;;;;5089072;28;20434;-71
2023/10/19 07:55:09;;;;;;;9.27;6.90;;;8.00;92.70;;;;;;5088821;28;20405;-71
2023/10/19 07:57:35;;;;;;;6.53;5.30;;;8.00;92.80;;;;;;5089173;28;20398;-71
2023/10/19 08:00:01;;;;;;;8.50;5.93;;;8.00;93.00;;;;;;5089262;28;20471;-71
2023/10/19 08:02:28;;;;;;;7.63;5.38;;;8.00;93.00;;;;;;5089047;28;20860;-71
2023/10/19 08:04:54;;;;;;;7.35;5.38;;;8.00;93.10;;;;;;5088206;28;20491;-71
2023/10/19 08:07:20;;;;;;;7.22;5.53;;;8.00;92.90;;;;;;5087192;28;20448;-71
2023/10/19 08:09:45;;;;;;;7.50;5.53;;;8.10;92.70;;;;;;5089149;28;20489;-72
2023/10/19 08:12:13;;;;;;;10.40;7.43;;;8.10;92.80;;;;;;5121179;27;20452;-71
2023/10/19 08:14:39;;;;;;;7.05;5.60;;;8.10;92.90;;;;;;5088737;28;20409;-72
2023/10/19 08:17:08;;;;;;;9.48;6.75;;;8.10;93.00;;;;;;5080946;28;20402;-72
2023/10/19 08:19:35;;;;;;;13.53;10.90;;;8.10;93.00;;;;;;5082030;28;20460;-71
2023/10/19 08:22:01;;;;;;;15.77;11.47;;;8.10;92.90;;;;;;5077123;28;20911;-72
2023/10/19 08:24:28;;;;;;;16.17;11.67;;;8.10;92.90;;;;;;5088636;28;20445;-71
2023/10/19 08:26:55;;;;;;;14.03;11.70;;;8.10;93.20;;;;;;5070917;28;20503;-72
2023/10/19 08:29:21;;;;;;;10.17;8.00;;;8.10;93.10;;;;;;5087002;28;20442;-71
2023/10/19 08:31:46;;;;;;;12.65;8.35;;;8.10;93.10;;;;;;5088782;28;20436;-71
2023/10/19 08:34:13;;;;;;;10.43;7.67;;;8.10;92.90;;;;;;5088078;28;20394;-71
2023/10/19 08:36:39;;;;;;;9.98;7.45;;;8.10;93.00;;;;;;5087536;28;20434;-71
2023/10/19 08:39:06;;;;;;;8.30;6.57;;;8.10;93.10;;;;;;5086863;28;20467;-71
2023/10/19 08:41:37;;;;;;;7.10;5.13;;;8.10;93.10;;;;;;5087054;28;20481;-72
2023/10/19 08:44:10;;;;;;;5.37;4.40;;;8.10;93.00;;;;;;5088122;28;20796;-71
2023/10/19 08:46:40;;;;;;;5.32;4.28;;;8.10;92.90;;;;;;5088249;28;20916;-71
2023/10/19 08:49:09;;;;;;;5.30;4.20;;;8.20;93.00;;;;;;5087904;28;20441;-71
2023/10/19 08:51:36;;;;;;;6.82;4.40;;;8.10;93.00;;;;;;5088085;28;20969;-71
2023/10/19 08:54:05;;;;;;;6.40;5.05;;;8.10;93.00;;;;;;5087962;28;20430;-72
2023/10/19 08:56:31;;;;;;;7.85;5.93;;;8.20;93.10;;;;;;5086837;28;20402;-71
2023/10/19 08:58:56;;;;;;;8.85;5.80;;;8.20;93.00;;;;;;5087562;28;20402;-71
2023/10/19 09:01:23;;;;;;;8.53;6.93;;;8.10;93.00;;;;;;5088230;28;20410;-72
2023/10/19 09:03:50;;;;;;;8.73;6.97;;;8.10;93.20;;;;;;5069792;28;20409;-71
2023/10/19 09:06:16;;;;;;;9.35;6.32;;;8.20;93.30;;;;;;5088161;28;20398;-71
2023/10/19 09:08:48;;;;;;;9.40;7.18;;;8.20;93.20;;;;;;5087543;28;20892;-71
2023/10/19 09:11:13;;;;;;;9.13;7.17;;;8.20;93.30;;;;;;5088028;28;20422;-71
2023/10/19 09:13:47;;;;;;;12.50;7.87;;;8.20;93.40;;;;;;5088116;28;21241;-71
2023/10/19 09:16:15;;;;;;;11.63;8.77;;;8.20;93.50;;;;;;5086281;28;20418;-72
2023/10/19 09:18:40;;;;;;;16.77;14.27;;;8.20;93.40;;;;;;5087617;28;20398;-71
2023/10/19 09:21:07;;;;;;;17.93;14.63;;;8.20;93.40;;;;;;5120344;27;20418;-71
2023/10/19 09:23:34;;;;;;;26.33;20.83;;;8.20;93.60;;;;;;5087627;28;20413;-71
2023/10/19 09:26:05;;;;;;;18.70;15.70;;;8.30;93.60;;;;;;5087529;28;20455;-71
2023/10/19 09:28:34;;;;;;;13.43;11.07;;;8.30;93.30;;;;;;5088003;28;20409;-72
2023/10/19 09:31:00;;;;;;;15.88;12.23;;;8.30;93.20;;;;;;5087439;28;20471;-71
2023/10/19 09:33:27;;;;;;;17.20;13.52;;;8.30;93.30;;;;;;5068987;28;20486;-71
2023/10/19 09:35:54;;;;;;;16.48;13.43;;;8.30;93.30;;;;;;5083367;28;20398;-71
2023/10/19 09:38:24;;;;;;;16.17;13.30;;;8.30;93.30;;;;;;5087419;28;20414;-71
2023/10/19 09:40:54;;;;;;;12.15;9.98;;;8.30;93.30;;;;;;5087468;28;20814;-72
2023/10/19 09:43:42;;;;;;;14.88;12.10;;;8.30;93.10;;;;;;5077476;28;20412;-71
2023/10/19 09:46:12;;;;;;;14.75;11.75;;;8.30;93.50;;;;;;5086750;28;20410;-71
2023/10/19 09:48:42;;;;;;;11.10;9.40;;;8.30;93.50;;;;;;5087868;28;20406;-72
2023/10/19 09:51:09;;;;;;;15.35;12.98;;;8.30;93.50;;;;;;5075274;28;20916;-71
2023/10/19 09:53:37;;;;;;;13.13;11.13;;;8.30;93.50;;;;;;5087110;28;20406;-71
2023/10/19 09:56:06;;;;;;;18.48;15.68;;;8.30;93.70;;;;;;5075266;28;20398;-71
2023/10/19 09:58:40;;;;;;;25.25;20.50;;;8.30;93.50;;;;;;5087502;28;20463;-71
2023/10/19 10:01:11;;;;;;;27.13;21.40;;;8.40;93.30;;;;;;5087726;28;20802;-72
2023/10/19 10:03:53;;;;;;;28.08;22.42;;;8.40;93.20;;;;;;5086828;28;20516;-72
2023/10/19 10:06:50;;;;;;;26.92;22.73;;;8.30;93.30;;;;;;5122534;27;20410;-72
2023/10/19 10:09:23;;;;;;;33.53;26.35;;;8.40;93.40;;;;;;5114231;27;20466;-71
2023/10/19 10:11:54;;;;;;;33.08;26.38;;;8.40;93.50;;;;;;5091253;28;20428;-71
2023/10/19 10:14:24;;;;;;;32.90;27.13;;;8.40;93.50;;;;;;5090721;28;20927;-71
2023/10/19 10:17:01;;;;;;;31.48;25.65;;;8.40;93.60;;;;;;5123093;27;20418;-71
2023/10/19 10:19:26;;;;;;;25.58;19.50;;;8.40;93.60;;;;;;5089762;28;20417;-71
2023/10/19 10:22:14;;;;;;;23.10;18.00;;;8.40;93.60;;;;;;5090068;28;20418;-71
2023/10/19 10:24:43;;;;;;;15.48;9.93;;;8.50;93.70;;;;;;5078425;28;20795;-71
2023/10/19 10:27:10;;;;;;;13.35;8.50;;;8.50;93.70;;;;;;5090934;28;20408;-71
2023/10/19 10:29:36;;;;;;;13.68;7.03;;;8.50;93.70;;;;;;5090521;28;21245;-71
2023/10/19 10:32:05;;;;;;;11.40;6.72;;;8.50;93.90;;;;;;5090726;28;20426;-71
2023/10/19 10:34:36;;;;;;;13.23;6.60;;;8.60;93.70;;;;;;5090431;28;20990;-72
2023/10/19 10:37:10;;;;;;;11.57;6.10;;;8.60;93.80;;;;;;5091107;28;20423;-71
2023/10/19 10:39:37;;;;;;;15.50;6.65;;;8.60;93.70;;;;;;5089288;28;20417;-72
2023/10/19 10:42:10;;;;;;;13.43;6.25;;;8.60;93.80;;;;;;5080333;28;20403;-71
2023/10/19 10:44:40;;;;;;;12.93;5.83;;;8.60;93.80;;;;;;5089457;28;20410;-71
2023/10/19 10:47:11;;;;;;;11.73;5.50;;;8.70;93.90;;;;;;5077412;28;20411;-71
2023/10/19 10:50:06;;;;;;;11.40;5.80;;;8.70;93.70;;;;;;5090358;28;21155;-71
2023/10/19 10:52:36;;;;;;;12.30;6.00;;;8.70;93.70;;;;;;5070601;28;21180;-71
2023/10/19 10:55:13;;;;;;;12.00;5.73;;;8.70;93.50;;;;;;5090685;28;20412;-71
2023/10/19 10:57:40;;;;;;;9.68;4.82;;;8.70;93.70;;;;;;5090731;28;20410;-71
2023/10/19 11:00:17;;;;;;;9.15;4.80;;;8.60;93.40;;;;;;5090407;28;20410;-71
2023/10/19 11:02:45;;;;;;;11.65;5.25;;;8.60;93.60;;;;;;5090474;28;20493;-71
2023/10/19 11:05:15;;;;;;;8.82;4.63;;;8.60;93.70;;;;;;5071796;28;20406;-71
2023/10/19 11:08:13;;;;;;;9.52;4.80;;;8.70;93.80;;;;;;5090164;28;20406;-72
2023/10/19 11:10:45;;;;;;;6.70;4.30;;;8.70;93.90;;;;;;5077221;28;20414;-71
2023/10/19 11:13:13;;;;;;;6.53;4.10;;;8.70;93.80;;;;;;5089639;28;20409;-72
2023/10/19 11:15:47;;;;;;;7.00;4.35;;;8.70;94.00;;;;;;5090317;28;20402;-71
2023/10/19 11:18:43;;;;;;;5.40;3.88;;;8.70;93.90;;;;;;5089808;28;20817;-71
2023/10/19 11:21:14;;;;;;;5.07;3.60;;;8.80;93.90;;;;;;5088658;28;20478;-71
2023/10/19 11:23:45;;;;;;;5.28;3.20;;;8.80;93.80;;;;;;5071163;28;20976;-71
2023/10/19 11:26:12;;;;;;;4.40;3.17;;;8.80;93.80;;;;;;5085207;28;20413;-71
2023/10/19 11:28:43;;;;;;;4.47;3.08;;;8.80;93.80;;;;;;5082517;28;20443;-72
2023/10/19 11:31:18;;;;;;;4.80;3.30;;;8.80;94.00;;;;;;5084511;28;20421;-71
2023/10/19 11:33:46;;;;;;;4.30;2.77;;;8.80;93.90;;;;;;5089615;28;20493;-71
2023/10/19 11:36:12;;;;;;;4.07;2.50;;;8.80;93.70;;;;;;5087884;28;20448;-71
2023/10/19 11:38:49;;;;;;;4.43;2.60;;;8.80;93.80;;;;;;5089759;28;20441;-71
2023/10/19 11:41:15;;;;;;;4.63;2.72;;;8.80;93.80;;;;;;5079175;28;20512;-71
2023/10/19 11:43:42;;;;;;;5.22;2.97;;;8.80;93.80;;;;;;5089361;28;20413;-71
2023/10/19 11:46:09;;;;;;;4.65;3.22;;;8.80;93.70;;;;;;5070526;28;20947;-71
2023/10/19 11:48:36;;;;;;;4.25;2.80;;;8.70;93.80;;;;;;5089875;28;20433;-71
2023/10/19 11:51:05;;;;;;;5.22;2.70;;;8.80;93.90;;;;;;5089141;28;20426;-72
2023/10/19 11:53:36;;;;;;;4.30;2.80;;;8.80;93.60;;;;;;5089374;28;20859;-71
2023/10/19 11:56:04;;;;;;;4.22;2.78;;;8.80;93.60;;;;;;5075792;28;20414;-71
2023/10/19 11:58:32;;;;;;;4.93;2.88;;;8.80;93.60;;;;;;5089214;28;20413;-72
2023/10/19 12:00:59;;;;;;;4.47;2.80;;;8.80;93.70;;;;;;5088790;28;20409;-71
2023/10/19 12:03:25;;;;;;;5.43;3.13;;;8.80;93.70;;;;;;5088274;28;20810;-71
2023/10/19 12:05:52;;;;;;;4.28;3.00;;;8.80;93.70;;;;;;5077514;28;20800;-71
2023/10/19 12:08:18;;;;;;;5.38;3.60;;;8.80;93.80;;;;;;5088865;28;20406;-72
2023/10/19 12:10:44;;;;;;;6.57;3.58;;;8.80;93.70;;;;;;5087706;28;20410;-71
2023/10/19 12:13:10;;;;;;;5.73;2.93;;;8.80;93.70;;;;;;5088525;28;20438;-72
2023/10/19 12:15:35;;;;;;;5.55;2.92;;;8.80;93.40;;;;;;5089061;28;20416;-72
2023/10/19 12:18:02;;;;;;;4.37;2.87;;;8.90;93.50;;;;;;5087624;28;20406;-72
2023/10/19 12:20:30;;;;;;;5.25;3.00;;;8.90;93.30;;;;;;5089023;28;20420;-71
2023/10/19 12:22:58;;;;;;;5.35;3.58;;;8.90;93.40;;;;;;5088522;28;20926;-71
2023/10/19 12:25:31;;;;;;;5.18;3.20;;;8.90;93.50;;;;;;5087108;28;20406;-71
2023/10/19 12:28:00;;;;;;;6.15;3.75;;;8.90;93.40;;;;;;5087559;28;20390;-71
2023/10/19 12:30:31;;;;;;;6.95;3.53;;;8.90;93.20;;;;;;5087040;28;20923;-71
2023/10/19 12:32:59;;;;;;;7.53;4.55;;;8.90;93.40;;;;;;5088538;28;20513;-71
2023/10/19 12:35:42;;;;;;;10.27;5.00;;;8.90;93.40;;;;;;5088547;28;20823;-71
2023/10/19 12:38:15;;;;;;;8.07;4.57;;;8.80;93.40;;;;;;5087418;28;20398;-72
2023/10/19 12:40:42;;;;;;;6.25;4.20;;;8.90;93.70;;;;;;5088659;28;20394;-71
2023/10/19 12:43:10;;;;;;;7.40;4.30;;;8.90;93.70;;;;;;5078101;28;20406;-71
2023/10/19 12:45:39;;;;;;;8.20;5.03;;;8.90;93.60;;;;;;5088085;28;20478;-72
2023/10/19 12:48:05;;;;;;;6.93;4.57;;;8.90;93.50;;;;;;5087423;28;20410;-72
2023/10/19 12:50:34;;;;;;;7.50;3.90;;;8.90;93.50;;;;;;5088125;28;20398;-72
2023/10/19 12:53:00;;;;;;;6.95;4.30;;;8.90;93.60;;;;;;5088267;28;20504;-71
2023/10/19 12:55:30;;;;;;;5.10;3.70;;;8.90;93.60;;;;;;5086938;28;20481;-71
2023/10/19 12:57:57;;;;;;;7.55;3.97;;;9.00;93.60;;;;;;5087561;28;20919;-71
2023/10/19 13:00:23;;;;;;;5.53;3.40;;;9.00;93.30;;;;;;5069083;28;20943;-71
2023/10/19 13:02:50;;;;;;;6.80;3.08;;;9.00;93.10;;;;;;5088164;28;20402;-71
2023/10/19 13:05:18;;;;;;;6.72;3.60;;;9.00;93.10;;;;;;5087916;28;20402;-71
2023/10/19 13:07:44;;;;;;;4.90;2.90;;;9.00;93.10;;;;;;5088344;28;20421;-71
2023/10/19 13:10:11;;;;;;;4.75;3.17;;;8.90;93.10;;;;;;5086412;28;20417;-71
2023/10/19 13:12:37;;;;;;;6.82;3.50;;;8.90;93.00;;;;;;5087822;28;20437;-72